sensor_id;sensor_type;location;lat;lon;timestamp;P1;durP1;ratioP1;P2;durP2;ratioP2
51384;SDS011;37478;55.682;37.462;2022-12-15T00:02:19;8.63;;;4.68;;
51384;SDS011;37478;55.682;37.462;2022-12-15T00:05:03;10.40;;;5.60;;
51384;SDS011;37478;55.682;37.462;2022-12-15T00:07:47;11.73;;;5.63;;
51384;SDS011;37478;55.682;37.462;2022-12-15T00:10:31;10.52;;;6.03;;
51384;SDS011;37478;55.682;37.462;2022-12-15T00:13:15;8.95;;;5.32;;
51384;SDS011;37478;55.682;37.462;2022-12-15T00:15:59;10.18;;;5.18;;
51384;SDS011;37478;55.682;37.462;2022-12-15T00:18:43;10.10;;;5.30;;
51384;SDS011;37478;55.682;37.462;2022-12-15T00:21:27;12.63;;;5.18;;
51384;SDS011;37478;55.682;37.462;2022-12-15T00:24:11;8.95;;;5.05;;
51384;SDS011;37478;55.682;37.462;2022-12-15T00:26:55;10.80;;;5.57;;
51384;SDS011;37478;55.682;37.462;2022-12-15T00:29:39;10.85;;;5.47;;
51384;SDS011;37478;55.682;37.462;2022-12-15T00:32:23;14.00;;;5.72;;
51384;SDS011;37478;55.682;37.462;2022-12-15T00:35:07;11.55;;;4.63;;
51384;SDS011;37478;55.682;37.462;2022-12-15T00:37:51;10.48;;;4.90;;
51384;SDS011;37478;55.682;37.462;2022-12-15T00:40:35;12.07;;;5.10;;
51384;SDS011;37478;55.682;37.462;2022-12-15T00:43:00;11.40;;;5.55;;
51384;SDS011;37478;55.682;37.462;2022-12-15T00:45:26;12.68;;;5.60;;
51384;SDS011;37478;55.682;37.462;2022-12-15T00:48:11;10.30;;;4.53;;
51384;SDS011;37478;55.682;37.462;2022-12-15T00:50:36;10.18;;;5.53;;
51384;SDS011;37478;55.682;37.462;2022-12-15T00:53:17;15.30;;;6.43;;
51384;SDS011;37478;55.682;37.462;2022-12-15T00:56:01;12.50;;;5.13;;
51384;SDS011;37478;55.682;37.462;2022-12-15T00:58:45;12.23;;;5.55;;
51384;SDS011;37478;55.682;37.462;2022-12-15T01:01:29;8.07;;;5.43;;
51384;SDS011;37478;55.682;37.462;2022-12-15T01:04:13;13.18;;;5.43;;
51384;SDS011;37478;55.682;37.462;2022-12-15T01:06:57;11.68;;;6.07;;
51384;SDS011;37478;55.682;37.462;2022-12-15T01:09:41;11.32;;;5.95;;
51384;SDS011;37478;55.682;37.462;2022-12-15T01:12:25;11.10;;;5.57;;
51384;SDS011;37478;55.682;37.462;2022-12-15T01:15:09;12.63;;;6.32;;
51384;SDS011;37478;55.682;37.462;2022-12-15T01:17:52;11.52;;;6.10;;
51384;SDS011;37478;55.682;37.462;2022-12-15T01:20:36;8.52;;;5.03;;
51384;SDS011;37478;55.682;37.462;2022-12-15T01:23:02;10.13;;;5.95;;
51384;SDS011;37478;55.682;37.462;2022-12-15T01:25:27;11.85;;;6.43;;
51384;SDS011;37478;55.682;37.462;2022-12-15T01:27:53;10.75;;;5.47;;
51384;SDS011;37478;55.682;37.462;2022-12-15T01:30:19;12.60;;;6.60;;
51384;SDS011;37478;55.682;37.462;2022-12-15T01:32:45;10.13;;;5.47;;
51384;SDS011;37478;55.682;37.462;2022-12-15T01:35:10;12.18;;;5.82;;
51384;SDS011;37478;55.682;37.462;2022-12-15T01:37:35;13.88;;;5.93;;
51384;SDS011;37478;55.682;37.462;2022-12-15T01:40:02;12.45;;;5.93;;
51384;SDS011;37478;55.682;37.462;2022-12-15T01:42:45;10.57;;;5.85;;
51384;SDS011;37478;55.682;37.462;2022-12-15T01:47:52;13.70;;;7.68;;
51384;SDS011;37478;55.682;37.462;2022-12-15T01:50:17;12.63;;;5.95;;
51384;SDS011;37478;55.682;37.462;2022-12-15T01:52:43;10.88;;;5.60;;
51384;SDS011;37478;55.682;37.462;2022-12-15T01:55:08;11.48;;;5.43;;
51384;SDS011;37478;55.682;37.462;2022-12-15T01:57:34;13.20;;;6.03;;
51384;SDS011;37478;55.682;37.462;2022-12-15T02:00:01;12.93;;;5.78;;
51384;SDS011;37478;55.682;37.462;2022-12-15T02:02:28;10.32;;;6.20;;
51384;SDS011;37478;55.682;37.462;2022-12-15T02:04:55;12.27;;;5.30;;
51384;SDS011;37478;55.682;37.462;2022-12-15T02:07:22;17.23;;;7.80;;
51384;SDS011;37478;55.682;37.462;2022-12-15T02:09:47;10.90;;;5.50;;
51384;SDS011;37478;55.682;37.462;2022-12-15T02:17:17;14.02;;;6.10;;
51384;SDS011;37478;55.682;37.462;2022-12-15T02:25:05;14.07;;;7.43;;
51384;SDS011;37478;55.682;37.462;2022-12-15T02:32:31;18.83;;;7.03;;
51384;SDS011;37478;55.682;37.462;2022-12-15T02:35:01;16.85;;;6.50;;
51384;SDS011;37478;55.682;37.462;2022-12-15T02:37:34;10.85;;;5.72;;
51384;SDS011;37478;55.682;37.462;2022-12-15T02:40:00;11.52;;;6.15;;
51384;SDS011;37478;55.682;37.462;2022-12-15T02:42:26;18.20;;;6.90;;
51384;SDS011;37478;55.682;37.462;2022-12-15T02:44:53;13.13;;;6.45;;
51384;SDS011;37478;55.682;37.462;2022-12-15T02:47:23;13.88;;;7.30;;
51384;SDS011;37478;55.682;37.462;2022-12-15T02:55:00;11.63;;;6.10;;
51384;SDS011;37478;55.682;37.462;2022-12-15T02:58:11;16.50;;;6.55;;
51384;SDS011;37478;55.682;37.462;2022-12-15T03:00:16;15.13;;;6.53;;
51384;SDS011;37478;55.682;37.462;2022-12-15T03:02:43;11.60;;;6.13;;
51384;SDS011;37478;55.682;37.462;2022-12-15T03:05:09;13.65;;;7.70;;
51384;SDS011;37478;55.682;37.462;2022-12-15T03:07:36;13.27;;;7.22;;
51384;SDS011;37478;55.682;37.462;2022-12-15T03:10:02;12.82;;;6.88;;
51384;SDS011;37478;55.682;37.462;2022-12-15T03:12:28;12.65;;;6.38;;
51384;SDS011;37478;55.682;37.462;2022-12-15T03:14:53;13.32;;;6.40;;
51384;SDS011;37478;55.682;37.462;2022-12-15T03:17:19;12.35;;;5.53;;
51384;SDS011;37478;55.682;37.462;2022-12-15T03:19:44;12.68;;;6.90;;
51384;SDS011;37478;55.682;37.462;2022-12-15T03:22:10;13.80;;;5.82;;
51384;SDS011;37478;55.682;37.462;2022-12-15T03:24:35;10.48;;;5.53;;
51384;SDS011;37478;55.682;37.462;2022-12-15T03:27:01;11.52;;;6.82;;
51384;SDS011;37478;55.682;37.462;2022-12-15T03:29:26;15.60;;;6.57;;
51384;SDS011;37478;55.682;37.462;2022-12-15T03:31:51;11.95;;;6.30;;
51384;SDS011;37478;55.682;37.462;2022-12-15T03:34:17;11.27;;;5.55;;
51384;SDS011;37478;55.682;37.462;2022-12-15T03:36:42;14.13;;;7.32;;
51384;SDS011;37478;55.682;37.462;2022-12-15T03:39:07;11.07;;;6.47;;
51384;SDS011;37478;55.682;37.462;2022-12-15T03:41:33;10.85;;;6.57;;
51384;SDS011;37478;55.682;37.462;2022-12-15T03:43:59;14.40;;;7.15;;
51384;SDS011;37478;55.682;37.462;2022-12-15T03:46:24;12.93;;;6.45;;
51384;SDS011;37478;55.682;37.462;2022-12-15T03:48:52;14.18;;;7.05;;
51384;SDS011;37478;55.682;37.462;2022-12-15T03:51:18;16.33;;;6.50;;
51384;SDS011;37478;55.682;37.462;2022-12-15T03:53:43;14.50;;;6.70;;
51384;SDS011;37478;55.682;37.462;2022-12-15T03:56:08;17.35;;;7.45;;
51384;SDS011;37478;55.682;37.462;2022-12-15T03:58:34;14.02;;;6.35;;
51384;SDS011;37478;55.682;37.462;2022-12-15T04:01:08;10.73;;;6.18;;
51384;SDS011;37478;55.682;37.462;2022-12-15T04:03:33;13.77;;;7.00;;
51384;SDS011;37478;55.682;37.462;2022-12-15T04:05:58;13.25;;;7.07;;
51384;SDS011;37478;55.682;37.462;2022-12-15T04:08:24;10.15;;;5.40;;
51384;SDS011;37478;55.682;37.462;2022-12-15T04:10:50;13.10;;;6.90;;
51384;SDS011;37478;55.682;37.462;2022-12-15T04:13:16;11.90;;;7.13;;
51384;SDS011;37478;55.682;37.462;2022-12-15T04:15:41;18.13;;;7.40;;
51384;SDS011;37478;55.682;37.462;2022-12-15T04:18:07;14.07;;;6.78;;
51384;SDS011;37478;55.682;37.462;2022-12-15T04:20:34;12.68;;;6.40;;
51384;SDS011;37478;55.682;37.462;2022-12-15T04:22:59;18.35;;;8.65;;
51384;SDS011;37478;55.682;37.462;2022-12-15T04:25:25;16.02;;;7.68;;
51384;SDS011;37478;55.682;37.462;2022-12-15T04:28:09;20.60;;;7.53;;
51384;SDS011;37478;55.682;37.462;2022-12-15T04:30:54;14.73;;;6.35;;
51384;SDS011;37478;55.682;37.462;2022-12-15T04:33:38;16.63;;;7.93;;
51384;SDS011;37478;55.682;37.462;2022-12-15T04:36:23;13.85;;;6.38;;
51384;SDS011;37478;55.682;37.462;2022-12-15T04:39:07;12.00;;;6.68;;
51384;SDS011;37478;55.682;37.462;2022-12-15T04:41:51;12.77;;;6.38;;
51384;SDS011;37478;55.682;37.462;2022-12-15T04:44:37;17.42;;;6.57;;
51384;SDS011;37478;55.682;37.462;2022-12-15T04:47:21;12.32;;;6.53;;
51384;SDS011;37478;55.682;37.462;2022-12-15T04:50:05;14.00;;;6.80;;
51384;SDS011;37478;55.682;37.462;2022-12-15T04:52:49;13.25;;;7.40;;
51384;SDS011;37478;55.682;37.462;2022-12-15T04:55:34;15.95;;;7.47;;
51384;SDS011;37478;55.682;37.462;2022-12-15T04:58:17;14.75;;;6.28;;
51384;SDS011;37478;55.682;37.462;2022-12-15T05:01:01;12.88;;;6.30;;
51384;SDS011;37478;55.682;37.462;2022-12-15T05:03:45;16.23;;;7.88;;
51384;SDS011;37478;55.682;37.462;2022-12-15T05:06:29;14.38;;;7.60;;
51384;SDS011;37478;55.682;37.462;2022-12-15T05:09:13;14.27;;;7.90;;
51384;SDS011;37478;55.682;37.462;2022-12-15T05:11:57;16.50;;;7.00;;
51384;SDS011;37478;55.682;37.462;2022-12-15T05:14:41;16.38;;;7.30;;
51384;SDS011;37478;55.682;37.462;2022-12-15T05:17:25;26.45;;;10.02;;
51384;SDS011;37478;55.682;37.462;2022-12-15T05:20:09;16.23;;;7.53;;
51384;SDS011;37478;55.682;37.462;2022-12-15T05:22:53;21.38;;;8.93;;
51384;SDS011;37478;55.682;37.462;2022-12-15T05:25:37;10.73;;;5.97;;
51384;SDS011;37478;55.682;37.462;2022-12-15T05:28:21;13.35;;;6.57;;
51384;SDS011;37478;55.682;37.462;2022-12-15T05:31:06;17.35;;;7.85;;
51384;SDS011;37478;55.682;37.462;2022-12-15T05:33:49;13.23;;;6.68;;
51384;SDS011;37478;55.682;37.462;2022-12-15T05:36:15;13.25;;;6.35;;
51384;SDS011;37478;55.682;37.462;2022-12-15T05:38:40;14.98;;;6.70;;
51384;SDS011;37478;55.682;37.462;2022-12-15T05:41:05;15.50;;;8.10;;
51384;SDS011;37478;55.682;37.462;2022-12-15T05:43:31;13.73;;;7.55;;
51384;SDS011;37478;55.682;37.462;2022-12-15T05:46:01;14.70;;;7.68;;
51384;SDS011;37478;55.682;37.462;2022-12-15T05:48:26;9.30;;;6.88;;
51384;SDS011;37478;55.682;37.462;2022-12-15T05:50:51;15.60;;;7.28;;
51384;SDS011;37478;55.682;37.462;2022-12-15T05:53:17;14.27;;;8.25;;
51384;SDS011;37478;55.682;37.462;2022-12-15T05:55:42;13.48;;;6.50;;
51384;SDS011;37478;55.682;37.462;2022-12-15T05:58:07;20.80;;;8.10;;
51384;SDS011;37478;55.682;37.462;2022-12-15T06:00:33;13.18;;;6.20;;
51384;SDS011;37478;55.682;37.462;2022-12-15T06:02:58;14.18;;;7.85;;
51384;SDS011;37478;55.682;37.462;2022-12-15T06:05:23;16.48;;;7.43;;
51384;SDS011;37478;55.682;37.462;2022-12-15T06:07:48;12.95;;;6.88;;
51384;SDS011;37478;55.682;37.462;2022-12-15T06:10:14;15.00;;;6.82;;
51384;SDS011;37478;55.682;37.462;2022-12-15T06:12:39;17.85;;;8.38;;
51384;SDS011;37478;55.682;37.462;2022-12-15T06:15:04;19.15;;;8.05;;
51384;SDS011;37478;55.682;37.462;2022-12-15T06:17:30;14.05;;;7.57;;
51384;SDS011;37478;55.682;37.462;2022-12-15T06:19:56;18.13;;;8.30;;
51384;SDS011;37478;55.682;37.462;2022-12-15T06:22:21;15.65;;;7.90;;
51384;SDS011;37478;55.682;37.462;2022-12-15T06:24:46;15.68;;;7.85;;
51384;SDS011;37478;55.682;37.462;2022-12-15T06:27:11;14.75;;;7.95;;
51384;SDS011;37478;55.682;37.462;2022-12-15T06:29:37;15.82;;;7.68;;
51384;SDS011;37478;55.682;37.462;2022-12-15T06:32:02;19.92;;;8.45;;
51384;SDS011;37478;55.682;37.462;2022-12-15T06:34:28;18.27;;;7.65;;
51384;SDS011;37478;55.682;37.462;2022-12-15T06:36:53;22.25;;;9.32;;
51384;SDS011;37478;55.682;37.462;2022-12-15T06:39:19;16.88;;;8.25;;
51384;SDS011;37478;55.682;37.462;2022-12-15T06:41:44;18.42;;;8.18;;
51384;SDS011;37478;55.682;37.462;2022-12-15T06:44:13;21.20;;;10.23;;
51384;SDS011;37478;55.682;37.462;2022-12-15T06:46:39;14.75;;;7.40;;
51384;SDS011;37478;55.682;37.462;2022-12-15T06:49:04;15.68;;;7.35;;
51384;SDS011;37478;55.682;37.462;2022-12-15T06:51:30;21.45;;;8.80;;
51384;SDS011;37478;55.682;37.462;2022-12-15T06:53:56;15.30;;;8.25;;
51384;SDS011;37478;55.682;37.462;2022-12-15T06:56:29;14.82;;;5.32;;
51384;SDS011;37478;55.682;37.462;2022-12-15T06:58:55;14.18;;;6.70;;
51384;SDS011;37478;55.682;37.462;2022-12-15T07:01:23;16.20;;;8.98;;
51384;SDS011;37478;55.682;37.462;2022-12-15T07:03:48;24.98;;;9.77;;
51384;SDS011;37478;55.682;37.462;2022-12-15T07:06:14;17.60;;;8.77;;
51384;SDS011;37478;55.682;37.462;2022-12-15T07:08:40;19.60;;;9.73;;
51384;SDS011;37478;55.682;37.462;2022-12-15T07:11:06;18.65;;;7.95;;
51384;SDS011;37478;55.682;37.462;2022-12-15T07:13:32;27.33;;;9.18;;
51384;SDS011;37478;55.682;37.462;2022-12-15T07:15:57;17.33;;;8.23;;
51384;SDS011;37478;55.682;37.462;2022-12-15T07:18:23;15.93;;;7.97;;
51384;SDS011;37478;55.682;37.462;2022-12-15T07:20:48;15.63;;;8.13;;
51384;SDS011;37478;55.682;37.462;2022-12-15T07:23:14;18.40;;;8.20;;
51384;SDS011;37478;55.682;37.462;2022-12-15T07:25:39;17.85;;;8.73;;
51384;SDS011;37478;55.682;37.462;2022-12-15T07:28:05;18.27;;;7.82;;
51384;SDS011;37478;55.682;37.462;2022-12-15T07:30:31;17.00;;;8.50;;
51384;SDS011;37478;55.682;37.462;2022-12-15T07:32:56;15.55;;;7.72;;
51384;SDS011;37478;55.682;37.462;2022-12-15T07:35:22;16.70;;;8.55;;
51384;SDS011;37478;55.682;37.462;2022-12-15T07:37:47;20.33;;;9.10;;
51384;SDS011;37478;55.682;37.462;2022-12-15T07:40:12;15.13;;;7.00;;
51384;SDS011;37478;55.682;37.462;2022-12-15T07:42:37;13.73;;;7.85;;
51384;SDS011;37478;55.682;37.462;2022-12-15T07:45:03;20.92;;;9.23;;
51384;SDS011;37478;55.682;37.462;2022-12-15T07:47:29;16.83;;;8.50;;
51384;SDS011;37478;55.682;37.462;2022-12-15T07:49:55;20.45;;;8.32;;
51384;SDS011;37478;55.682;37.462;2022-12-15T07:52:20;16.40;;;7.53;;
51384;SDS011;37478;55.682;37.462;2022-12-15T07:54:45;18.83;;;8.43;;
51384;SDS011;37478;55.682;37.462;2022-12-15T07:57:11;17.33;;;7.30;;
51384;SDS011;37478;55.682;37.462;2022-12-15T07:59:36;16.90;;;6.70;;
51384;SDS011;37478;55.682;37.462;2022-12-15T08:02:02;15.63;;;7.43;;
51384;SDS011;37478;55.682;37.462;2022-12-15T08:04:30;17.33;;;6.40;;
51384;SDS011;37478;55.682;37.462;2022-12-15T08:06:56;12.00;;;5.93;;
51384;SDS011;37478;55.682;37.462;2022-12-15T08:09:22;13.73;;;6.07;;
51384;SDS011;37478;55.682;37.462;2022-12-15T08:11:47;12.85;;;7.60;;
51384;SDS011;37478;55.682;37.462;2022-12-15T08:14:12;17.05;;;7.00;;
51384;SDS011;37478;55.682;37.462;2022-12-15T08:16:38;15.50;;;7.35;;
51384;SDS011;37478;55.682;37.462;2022-12-15T08:19:04;12.25;;;6.82;;
51384;SDS011;37478;55.682;37.462;2022-12-15T08:21:30;15.93;;;7.60;;
51384;SDS011;37478;55.682;37.462;2022-12-15T08:23:55;17.38;;;7.10;;
51384;SDS011;37478;55.682;37.462;2022-12-15T08:26:21;14.95;;;6.78;;
51384;SDS011;37478;55.682;37.462;2022-12-15T08:28:47;16.55;;;7.63;;
51384;SDS011;37478;55.682;37.462;2022-12-15T08:31:16;14.05;;;6.90;;
51384;SDS011;37478;55.682;37.462;2022-12-15T08:33:42;14.65;;;8.23;;
51384;SDS011;37478;55.682;37.462;2022-12-15T08:36:09;37.08;;;7.90;;
51384;SDS011;37478;55.682;37.462;2022-12-15T08:38:35;15.98;;;7.03;;
51384;SDS011;37478;55.682;37.462;2022-12-15T08:41:09;16.92;;;7.18;;
51384;SDS011;37478;55.682;37.462;2022-12-15T08:43:35;14.50;;;6.60;;
51384;SDS011;37478;55.682;37.462;2022-12-15T08:46:01;19.02;;;7.63;;
51384;SDS011;37478;55.682;37.462;2022-12-15T08:48:26;12.65;;;6.72;;
51384;SDS011;37478;55.682;37.462;2022-12-15T08:50:53;13.23;;;6.50;;
51384;SDS011;37478;55.682;37.462;2022-12-15T08:53:19;12.48;;;6.22;;
51384;SDS011;37478;55.682;37.462;2022-12-15T08:55:44;11.38;;;5.78;;
51384;SDS011;37478;55.682;37.462;2022-12-15T08:58:10;11.23;;;6.15;;
51384;SDS011;37478;55.682;37.462;2022-12-15T09:00:35;15.27;;;7.30;;
51384;SDS011;37478;55.682;37.462;2022-12-15T09:03:00;14.93;;;7.07;;
51384;SDS011;37478;55.682;37.462;2022-12-15T09:05:25;14.57;;;6.95;;
51384;SDS011;37478;55.682;37.462;2022-12-15T09:07:54;20.83;;;7.20;;
51384;SDS011;37478;55.682;37.462;2022-12-15T09:10:20;11.95;;;5.65;;
51384;SDS011;37478;55.682;37.462;2022-12-15T09:12:45;16.00;;;6.78;;
51384;SDS011;37478;55.682;37.462;2022-12-15T09:15:11;14.25;;;7.03;;
51384;SDS011;37478;55.682;37.462;2022-12-15T09:17:36;15.25;;;6.10;;
51384;SDS011;37478;55.682;37.462;2022-12-15T09:20:01;13.73;;;6.65;;
51384;SDS011;37478;55.682;37.462;2022-12-15T09:22:28;13.27;;;6.18;;
51384;SDS011;37478;55.682;37.462;2022-12-15T09:24:53;15.82;;;7.10;;
51384;SDS011;37478;55.682;37.462;2022-12-15T09:27:18;16.42;;;7.35;;
51384;SDS011;37478;55.682;37.462;2022-12-15T09:29:44;16.92;;;8.70;;
51384;SDS011;37478;55.682;37.462;2022-12-15T09:32:09;16.55;;;8.10;;
51384;SDS011;37478;55.682;37.462;2022-12-15T09:34:36;19.85;;;7.28;;
51384;SDS011;37478;55.682;37.462;2022-12-15T09:37:01;13.73;;;7.63;;
51384;SDS011;37478;55.682;37.462;2022-12-15T09:39:28;9.95;;;6.22;;
51384;SDS011;37478;55.682;37.462;2022-12-15T09:41:54;18.08;;;7.05;;
51384;SDS011;37478;55.682;37.462;2022-12-15T09:44:20;15.30;;;8.52;;
51384;SDS011;37478;55.682;37.462;2022-12-15T09:49:17;15.57;;;7.35;;
51384;SDS011;37478;55.682;37.462;2022-12-15T09:51:47;15.93;;;7.65;;
51384;SDS011;37478;55.682;37.462;2022-12-15T09:54:14;15.60;;;7.82;;
51384;SDS011;37478;55.682;37.462;2022-12-15T09:56:41;13.05;;;7.70;;
51384;SDS011;37478;55.682;37.462;2022-12-15T10:06:38;17.60;;;7.50;;
51384;SDS011;37478;55.682;37.462;2022-12-15T10:09:12;13.88;;;7.55;;
51384;SDS011;37478;55.682;37.462;2022-12-15T10:11:53;15.18;;;6.57;;
51384;SDS011;37478;55.682;37.462;2022-12-15T10:17:23;17.10;;;7.28;;
51384;SDS011;37478;55.682;37.462;2022-12-15T10:22:25;13.05;;;7.28;;
51384;SDS011;37478;55.682;37.462;2022-12-15T10:24:51;17.17;;;8.10;;
51384;SDS011;37478;55.682;37.462;2022-12-15T10:29:42;12.77;;;6.80;;
51384;SDS011;37478;55.682;37.462;2022-12-15T10:32:14;18.02;;;9.15;;
51384;SDS011;37478;55.682;37.462;2022-12-15T10:34:40;15.10;;;8.43;;
51384;SDS011;37478;55.682;37.462;2022-12-15T10:37:08;17.15;;;8.55;;
51384;SDS011;37478;55.682;37.462;2022-12-15T10:39:40;13.85;;;7.43;;
51384;SDS011;37478;55.682;37.462;2022-12-15T10:42:19;15.80;;;7.70;;
51384;SDS011;37478;55.682;37.462;2022-12-15T10:44:47;14.55;;;7.43;;
51384;SDS011;37478;55.682;37.462;2022-12-15T10:49:41;17.55;;;8.13;;
51384;SDS011;37478;55.682;37.462;2022-12-15T10:52:11;15.80;;;7.25;;
51384;SDS011;37478;55.682;37.462;2022-12-15T10:54:42;15.38;;;7.40;;
51384;SDS011;37478;55.682;37.462;2022-12-15T10:59:40;18.80;;;8.35;;
51384;SDS011;37478;55.682;37.462;2022-12-15T11:02:27;17.83;;;8.15;;
51384;SDS011;37478;55.682;37.462;2022-12-15T11:04:58;17.23;;;7.88;;
51384;SDS011;37478;55.682;37.462;2022-12-15T11:07:32;12.85;;;7.30;;
51384;SDS011;37478;55.682;37.462;2022-12-15T11:09:58;18.17;;;8.32;;
51384;SDS011;37478;55.682;37.462;2022-12-15T11:12:25;20.88;;;9.43;;
51384;SDS011;37478;55.682;37.462;2022-12-15T11:17:45;19.08;;;9.13;;
51384;SDS011;37478;55.682;37.462;2022-12-15T11:20:16;19.33;;;9.68;;
51384;SDS011;37478;55.682;37.462;2022-12-15T11:22:49;20.42;;;8.50;;
51384;SDS011;37478;55.682;37.462;2022-12-15T11:25:24;16.98;;;9.05;;
51384;SDS011;37478;55.682;37.462;2022-12-15T11:27:53;20.15;;;9.70;;
51384;SDS011;37478;55.682;37.462;2022-12-15T11:30:20;16.20;;;8.55;;
51384;SDS011;37478;55.682;37.462;2022-12-15T11:32:49;17.98;;;10.02;;
51384;SDS011;37478;55.682;37.462;2022-12-15T11:40:40;20.92;;;9.70;;
51384;SDS011;37478;55.682;37.462;2022-12-15T11:43:13;18.48;;;9.13;;
51384;SDS011;37478;55.682;37.462;2022-12-15T11:51:04;18.05;;;9.15;;
51384;SDS011;37478;55.682;37.462;2022-12-15T11:56:51;20.88;;;9.70;;
51384;SDS011;37478;55.682;37.462;2022-12-15T12:09:07;18.23;;;9.20;;
51384;SDS011;37478;55.682;37.462;2022-12-15T12:16:48;14.57;;;7.05;;
51384;SDS011;37478;55.682;37.462;2022-12-15T12:19:18;17.08;;;8.27;;
51384;SDS011;37478;55.682;37.462;2022-12-15T12:21:47;18.77;;;8.88;;
51384;SDS011;37478;55.682;37.462;2022-12-15T12:24:18;17.42;;;8.32;;
51384;SDS011;37478;55.682;37.462;2022-12-15T12:37:34;17.87;;;7.27;;
51384;SDS011;37478;55.682;37.462;2022-12-15T12:40:04;16.38;;;7.65;;
51384;SDS011;37478;55.682;37.462;2022-12-15T12:42:39;15.13;;;7.90;;
51384;SDS011;37478;55.682;37.462;2022-12-15T12:45:09;14.05;;;8.60;;
51384;SDS011;37478;55.682;37.462;2022-12-15T12:47:35;14.88;;;8.40;;
51384;SDS011;37478;55.682;37.462;2022-12-15T12:50:18;22.42;;;10.00;;
51384;SDS011;37478;55.682;37.462;2022-12-15T12:52:57;20.73;;;8.60;;
51384;SDS011;37478;55.682;37.462;2022-12-15T12:57:50;14.10;;;7.72;;
51384;SDS011;37478;55.682;37.462;2022-12-15T13:00:19;13.27;;;6.80;;
51384;SDS011;37478;55.682;37.462;2022-12-15T13:02:53;16.13;;;8.15;;
51384;SDS011;37478;55.682;37.462;2022-12-15T13:05:26;18.83;;;8.20;;
51384;SDS011;37478;55.682;37.462;2022-12-15T13:10:23;20.95;;;9.27;;
51384;SDS011;37478;55.682;37.462;2022-12-15T13:12:49;16.55;;;10.23;;
51384;SDS011;37478;55.682;37.462;2022-12-15T13:20:28;24.63;;;9.35;;
51384;SDS011;37478;55.682;37.462;2022-12-15T13:22:54;21.73;;;8.48;;
51384;SDS011;37478;55.682;37.462;2022-12-15T13:25:34;23.13;;;7.32;;
51384;SDS011;37478;55.682;37.462;2022-12-15T13:28:00;19.38;;;9.48;;
51384;SDS011;37478;55.682;37.462;2022-12-15T13:30:26;15.07;;;8.63;;
51384;SDS011;37478;55.682;37.462;2022-12-15T13:33:12;19.98;;;10.52;;
51384;SDS011;37478;55.682;37.462;2022-12-15T13:35:38;13.85;;;7.05;;
51384;SDS011;37478;55.682;37.462;2022-12-15T13:38:07;19.05;;;8.88;;
51384;SDS011;37478;55.682;37.462;2022-12-15T13:43:09;17.42;;;9.27;;
51384;SDS011;37478;55.682;37.462;2022-12-15T13:45:56;21.05;;;9.18;;
51384;SDS011;37478;55.682;37.462;2022-12-15T13:50:57;18.42;;;8.50;;
51384;SDS011;37478;55.682;37.462;2022-12-15T13:53:24;20.20;;;8.48;;
51384;SDS011;37478;55.682;37.462;2022-12-15T13:58:56;15.60;;;7.05;;
51384;SDS011;37478;55.682;37.462;2022-12-15T14:01:24;20.38;;;8.63;;
51384;SDS011;37478;55.682;37.462;2022-12-15T14:04:09;19.90;;;8.18;;
51384;SDS011;37478;55.682;37.462;2022-12-15T14:06:43;17.85;;;7.75;;
51384;SDS011;37478;55.682;37.462;2022-12-15T14:09:11;17.42;;;9.15;;
51384;SDS011;37478;55.682;37.462;2022-12-15T14:11:38;18.90;;;9.13;;
51384;SDS011;37478;55.682;37.462;2022-12-15T14:14:05;17.10;;;9.27;;
51384;SDS011;37478;55.682;37.462;2022-12-15T14:16:34;18.02;;;8.43;;
51384;SDS011;37478;55.682;37.462;2022-12-15T14:19:03;23.60;;;10.20;;
51384;SDS011;37478;55.682;37.462;2022-12-15T14:21:29;19.23;;;8.63;;
51384;SDS011;37478;55.682;37.462;2022-12-15T14:23:54;17.77;;;8.75;;
51384;SDS011;37478;55.682;37.462;2022-12-15T14:26:24;16.65;;;7.82;;
51384;SDS011;37478;55.682;37.462;2022-12-15T14:28:57;21.27;;;9.50;;
51384;SDS011;37478;55.682;37.462;2022-12-15T14:31:23;17.17;;;8.07;;
51384;SDS011;37478;55.682;37.462;2022-12-15T14:33:49;20.67;;;9.23;;
51384;SDS011;37478;55.682;37.462;2022-12-15T14:36:16;18.77;;;8.65;;
51384;SDS011;37478;55.682;37.462;2022-12-15T14:38:49;15.07;;;8.00;;
51384;SDS011;37478;55.682;37.462;2022-12-15T14:41:22;16.02;;;8.23;;
51384;SDS011;37478;55.682;37.462;2022-12-15T14:43:48;15.23;;;6.55;;
51384;SDS011;37478;55.682;37.462;2022-12-15T14:46:15;16.85;;;8.55;;
51384;SDS011;37478;55.682;37.462;2022-12-15T14:48:57;20.08;;;8.55;;
51384;SDS011;37478;55.682;37.462;2022-12-15T14:51:24;16.27;;;7.07;;
51384;SDS011;37478;55.682;37.462;2022-12-15T14:53:51;14.27;;;6.72;;
51384;SDS011;37478;55.682;37.462;2022-12-15T14:58:42;19.65;;;8.63;;
51384;SDS011;37478;55.682;37.462;2022-12-15T15:01:28;16.63;;;9.45;;
51384;SDS011;37478;55.682;37.462;2022-12-15T15:04:04;18.15;;;8.73;;
51384;SDS011;37478;55.682;37.462;2022-12-15T15:06:36;20.02;;;9.18;;
51384;SDS011;37478;55.682;37.462;2022-12-15T15:09:03;15.85;;;6.93;;
51384;SDS011;37478;55.682;37.462;2022-12-15T15:11:35;27.35;;;9.52;;
51384;SDS011;37478;55.682;37.462;2022-12-15T15:14:24;15.20;;;7.40;;
51384;SDS011;37478;55.682;37.462;2022-12-15T15:16:57;14.10;;;8.02;;
51384;SDS011;37478;55.682;37.462;2022-12-15T15:19:23;19.88;;;7.88;;
51384;SDS011;37478;55.682;37.462;2022-12-15T15:21:48;16.35;;;7.13;;
51384;SDS011;37478;55.682;37.462;2022-12-15T15:26:39;18.77;;;9.25;;
51384;SDS011;37478;55.682;37.462;2022-12-15T15:31:51;17.60;;;9.45;;
51384;SDS011;37478;55.682;37.462;2022-12-15T15:34:17;29.35;;;11.60;;
51384;SDS011;37478;55.682;37.462;2022-12-15T15:36:42;22.75;;;10.27;;
51384;SDS011;37478;55.682;37.462;2022-12-15T15:39:11;25.10;;;9.15;;
51384;SDS011;37478;55.682;37.462;2022-12-15T15:41:39;22.42;;;9.75;;
51384;SDS011;37478;55.682;37.462;2022-12-15T15:44:05;24.35;;;11.30;;
51384;SDS011;37478;55.682;37.462;2022-12-15T15:46:34;19.10;;;9.07;;
51384;SDS011;37478;55.682;37.462;2022-12-15T15:49:05;21.20;;;9.38;;
51384;SDS011;37478;55.682;37.462;2022-12-15T15:51:30;21.58;;;9.85;;
51384;SDS011;37478;55.682;37.462;2022-12-15T15:54:00;26.73;;;12.40;;
51384;SDS011;37478;55.682;37.462;2022-12-15T15:56:26;26.15;;;10.65;;
51384;SDS011;37478;55.682;37.462;2022-12-15T15:58:52;22.42;;;11.95;;
51384;SDS011;37478;55.682;37.462;2022-12-15T16:01:17;29.05;;;13.38;;
51384;SDS011;37478;55.682;37.462;2022-12-15T16:03:43;17.00;;;8.68;;
51384;SDS011;37478;55.682;37.462;2022-12-15T16:06:15;19.20;;;9.00;;
51384;SDS011;37478;55.682;37.462;2022-12-15T16:08:41;22.40;;;8.82;;
51384;SDS011;37478;55.682;37.462;2022-12-15T16:11:08;21.77;;;10.32;;
51384;SDS011;37478;55.682;37.462;2022-12-15T16:13:34;32.10;;;11.57;;
51384;SDS011;37478;55.682;37.462;2022-12-15T16:15:59;23.02;;;10.38;;
51384;SDS011;37478;55.682;37.462;2022-12-15T16:18:25;21.23;;;8.07;;
51384;SDS011;37478;55.682;37.462;2022-12-15T16:20:50;24.75;;;9.82;;
51384;SDS011;37478;55.682;37.462;2022-12-15T16:23:16;21.63;;;10.68;;
51384;SDS011;37478;55.682;37.462;2022-12-15T16:25:46;21.13;;;10.38;;
51384;SDS011;37478;55.682;37.462;2022-12-15T16:28:15;20.90;;;10.15;;
51384;SDS011;37478;55.682;37.462;2022-12-15T16:30:41;18.75;;;8.85;;
51384;SDS011;37478;55.682;37.462;2022-12-15T16:33:07;17.05;;;8.20;;